sensor_id;sensor_type;location;lat;lon;timestamp;temperature;humidity
6486;DHT22;3276;48.490;9.222;2023-11-21T00:00:00;8.70;34.80
6486;DHT22;3276;48.490;9.222;2023-11-21T00:02:26;8.70;32.50
6486;DHT22;3276;48.490;9.222;2023-11-21T00:04:52;8.60;30.70
6486;DHT22;3276;48.490;9.222;2023-11-21T00:07:18;8.60;30.70
6486;DHT22;3276;48.490;9.222;2023-11-21T00:09:43;8.70;30.90
6486;DHT22;3276;48.490;9.222;2023-11-21T00:12:09;8.70;30.80
6486;DHT22;3276;48.490;9.222;2023-11-21T00:14:36;8.80;29.70
6486;DHT22;3276;48.490;9.222;2023-11-21T00:17:02;8.80;29.70
6486;DHT22;3276;48.490;9.222;2023-11-21T00:19:28;8.80;30.50
6486;DHT22;3276;48.490;9.222;2023-11-21T00:21:53;8.80;30.90
6486;DHT22;3276;48.490;9.222;2023-11-21T00:24:19;8.90;31.00
6486;DHT22;3276;48.490;9.222;2023-11-21T00:26:44;8.90;29.20
6486;DHT22;3276;48.490;9.222;2023-11-21T00:29:10;8.80;29.30
6486;DHT22;3276;48.490;9.222;2023-11-21T00:31:36;8.80;29.40
6486;DHT22;3276;48.490;9.222;2023-11-21T00:34:03;8.80;28.40
6486;DHT22;3276;48.490;9.222;2023-11-21T00:36:31;8.80;27.20
6486;DHT22;3276;48.490;9.222;2023-11-21T00:38:57;8.80;27.10
6486;DHT22;3276;48.490;9.222;2023-11-21T00:41:22;8.90;27.60
6486;DHT22;3276;48.490;9.222;2023-11-21T00:43:48;8.90;27.90
6486;DHT22;3276;48.490;9.222;2023-11-21T00:46:13;9.00;27.40
6486;DHT22;3276;48.490;9.222;2023-11-21T00:48:39;9.00;26.50
6486;DHT22;3276;48.490;9.222;2023-11-21T00:51:05;9.00;24.70
6486;DHT22;3276;48.490;9.222;2023-11-21T00:53:31;9.00;23.70
6486;DHT22;3276;48.490;9.222;2023-11-21T00:55:57;9.00;23.20
6486;DHT22;3276;48.490;9.222;2023-11-21T00:58:26;9.10;23.30
6486;DHT22;3276;48.490;9.222;2023-11-21T01:00:52;9.10;23.20
6486;DHT22;3276;48.490;9.222;2023-11-21T01:03:18;9.00;23.60
6486;DHT22;3276;48.490;9.222;2023-11-21T01:05:44;9.00;22.10
6486;DHT22;3276;48.490;9.222;2023-11-21T01:08:10;9.00;22.70
6486;DHT22;3276;48.490;9.222;2023-11-21T01:10:36;9.00;22.70
6486;DHT22;3276;48.490;9.222;2023-11-21T01:13:02;9.00;22.70
6486;DHT22;3276;48.490;9.222;2023-11-21T01:15:29;9.00;22.70
6486;DHT22;3276;48.490;9.222;2023-11-21T01:17:55;9.00;22.30
6486;DHT22;3276;48.490;9.222;2023-11-21T01:20:20;9.10;21.40
6486;DHT22;3276;48.490;9.222;2023-11-21T01:22:46;9.10;21.60
6486;DHT22;3276;48.490;9.222;2023-11-21T01:25:14;9.20;20.50
6486;DHT22;3276;48.490;9.222;2023-11-21T01:27:41;9.20;20.20
6486;DHT22;3276;48.490;9.222;2023-11-21T01:30:07;9.20;19.90
6486;DHT22;3276;48.490;9.222;2023-11-21T01:32:36;9.00;20.30
6486;DHT22;3276;48.490;9.222;2023-11-21T01:35:01;9.00;18.70
6486;DHT22;3276;48.490;9.222;2023-11-21T01:37:27;9.00;19.10
6486;DHT22;3276;48.490;9.222;2023-11-21T01:39:54;9.00;19.90
6486;DHT22;3276;48.490;9.222;2023-11-21T01:42:21;9.00;20.20
6486;DHT22;3276;48.490;9.222;2023-11-21T01:44:47;8.90;19.80
6486;DHT22;3276;48.490;9.222;2023-11-21T01:47:13;9.00;19.00
6486;DHT22;3276;48.490;9.222;2023-11-21T01:49:39;9.00;19.10
6486;DHT22;3276;48.490;9.222;2023-11-21T01:52:05;8.80;19.40
6486;DHT22;3276;48.490;9.222;2023-11-21T01:54:32;8.90;19.40
6486;DHT22;3276;48.490;9.222;2023-11-21T01:56:58;8.80;19.80
6486;DHT22;3276;48.490;9.222;2023-11-21T01:59:33;8.70;20.40
6486;DHT22;3276;48.490;9.222;2023-11-21T02:01:59;8.70;21.60
6486;DHT22;3276;48.490;9.222;2023-11-21T02:04:25;8.60;21.30
6486;DHT22;3276;48.490;9.222;2023-11-21T02:06:50;8.50;21.80
6486;DHT22;3276;48.490;9.222;2023-11-21T02:09:16;8.50;21.50
6486;DHT22;3276;48.490;9.222;2023-11-21T02:11:43;8.50;21.50
6486;DHT22;3276;48.490;9.222;2023-11-21T02:14:09;8.50;22.00
6486;DHT22;3276;48.490;9.222;2023-11-21T02:16:36;8.50;20.90
6486;DHT22;3276;48.490;9.222;2023-11-21T02:19:04;8.50;21.30
6486;DHT22;3276;48.490;9.222;2023-11-21T02:21:34;8.50;21.90
6486;DHT22;3276;48.490;9.222;2023-11-21T02:24:01;8.60;22.30
6486;DHT22;3276;48.490;9.222;2023-11-21T02:26:27;8.60;20.40
6486;DHT22;3276;48.490;9.222;2023-11-21T02:28:52;8.70;21.60
6486;DHT22;3276;48.490;9.222;2023-11-21T02:31:18;8.70;20.80
6486;DHT22;3276;48.490;9.222;2023-11-21T02:33:44;8.70;19.60
6486;DHT22;3276;48.490;9.222;2023-11-21T02:36:10;8.60;20.10
6486;DHT22;3276;48.490;9.222;2023-11-21T02:38:35;8.50;20.10
6486;DHT22;3276;48.490;9.222;2023-11-21T02:41:01;8.40;20.70
6486;DHT22;3276;48.490;9.222;2023-11-21T02:43:26;8.30;21.70
6486;DHT22;3276;48.490;9.222;2023-11-21T02:45:52;8.30;22.20
6486;DHT22;3276;48.490;9.222;2023-11-21T02:48:17;8.40;21.90
6486;DHT22;3276;48.490;9.222;2023-11-21T02:50:43;8.40;21.40
6486;DHT22;3276;48.490;9.222;2023-11-21T02:53:09;8.40;21.30
6486;DHT22;3276;48.490;9.222;2023-11-21T02:55:36;8.50;20.80
6486;DHT22;3276;48.490;9.222;2023-11-21T02:58:02;8.50;20.10
6486;DHT22;3276;48.490;9.222;2023-11-21T03:00:29;8.50;20.70
6486;DHT22;3276;48.490;9.222;2023-11-21T03:02:55;8.60;20.80
6486;DHT22;3276;48.490;9.222;2023-11-21T03:05:21;8.60;20.40
6486;DHT22;3276;48.490;9.222;2023-11-21T03:07:47;8.60;19.60
6486;DHT22;3276;48.490;9.222;2023-11-21T03:10:12;8.60;19.10
6486;DHT22;3276;48.490;9.222;2023-11-21T03:12:38;8.60;19.30
6486;DHT22;3276;48.490;9.222;2023-11-21T03:15:07;8.70;19.20
6486;DHT22;3276;48.490;9.222;2023-11-21T03:17:33;8.70;19.00
6486;DHT22;3276;48.490;9.222;2023-11-21T03:20:00;8.80;18.70
6486;DHT22;3276;48.490;9.222;2023-11-21T03:22:25;8.80;19.00
6486;DHT22;3276;48.490;9.222;2023-11-21T03:24:51;8.80;18.40
6486;DHT22;3276;48.490;9.222;2023-11-21T03:27:18;8.80;18.30
6486;DHT22;3276;48.490;9.222;2023-11-21T03:29:43;8.80;18.30
6486;DHT22;3276;48.490;9.222;2023-11-21T03:32:10;8.70;19.20
6486;DHT22;3276;48.490;9.222;2023-11-21T03:34:53;8.70;19.70
6486;DHT22;3276;48.490;9.222;2023-11-21T03:37:20;8.60;19.60
6486;DHT22;3276;48.490;9.222;2023-11-21T03:39:46;8.60;18.90
6486;DHT22;3276;48.490;9.222;2023-11-21T03:42:12;8.60;19.70
6486;DHT22;3276;48.490;9.222;2023-11-21T03:44:37;8.60;20.10
6486;DHT22;3276;48.490;9.222;2023-11-21T03:47:03;8.70;19.80
6486;DHT22;3276;48.490;9.222;2023-11-21T03:49:29;8.70;19.40
6486;DHT22;3276;48.490;9.222;2023-11-21T03:51:55;8.70;20.00
6486;DHT22;3276;48.490;9.222;2023-11-21T03:54:21;8.70;19.20
6486;DHT22;3276;48.490;9.222;2023-11-21T03:56:46;8.80;18.90
6486;DHT22;3276;48.490;9.222;2023-11-21T03:59:12;8.70;19.30
6486;DHT22;3276;48.490;9.222;2023-11-21T04:01:37;8.80;19.20
6486;DHT22;3276;48.490;9.222;2023-11-21T04:04:03;8.90;19.00
6486;DHT22;3276;48.490;9.222;2023-11-21T04:06:29;8.90;19.20
6486;DHT22;3276;48.490;9.222;2023-11-21T04:08:55;8.90;18.80
6486;DHT22;3276;48.490;9.222;2023-11-21T04:11:20;8.90;18.40
6486;DHT22;3276;48.490;9.222;2023-11-21T04:13:46;8.90;18.60
6486;DHT22;3276;48.490;9.222;2023-11-21T04:16:12;8.90;18.80
6486;DHT22;3276;48.490;9.222;2023-11-21T04:18:38;8.90;18.80
6486;DHT22;3276;48.490;9.222;2023-11-21T04:21:05;9.00;18.50
6486;DHT22;3276;48.490;9.222;2023-11-21T04:23:31;9.00;18.60
6486;DHT22;3276;48.490;9.222;2023-11-21T04:25:57;9.10;19.20
6486;DHT22;3276;48.490;9.222;2023-11-21T04:28:26;9.10;18.50
6486;DHT22;3276;48.490;9.222;2023-11-21T04:30:51;9.10;19.00
6486;DHT22;3276;48.490;9.222;2023-11-21T04:33:17;9.10;19.40
6486;DHT22;3276;48.490;9.222;2023-11-21T04:35:43;9.20;19.40
6486;DHT22;3276;48.490;9.222;2023-11-21T04:38:08;9.10;19.20
6486;DHT22;3276;48.490;9.222;2023-11-21T04:40:34;9.10;18.80
6486;DHT22;3276;48.490;9.222;2023-11-21T04:42:59;9.10;19.10
6486;DHT22;3276;48.490;9.222;2023-11-21T04:45:25;9.10;19.60
6486;DHT22;3276;48.490;9.222;2023-11-21T04:47:50;9.10;20.00
6486;DHT22;3276;48.490;9.222;2023-11-21T04:50:18;9.10;20.20
6486;DHT22;3276;48.490;9.222;2023-11-21T04:52:44;9.10;20.40
6486;DHT22;3276;48.490;9.222;2023-11-21T04:55:09;9.10;21.50
6486;DHT22;3276;48.490;9.222;2023-11-21T04:57:36;9.10;21.80
6486;DHT22;3276;48.490;9.222;2023-11-21T05:00:03;9.00;22.70
6486;DHT22;3276;48.490;9.222;2023-11-21T05:02:32;9.00;22.70
6486;DHT22;3276;48.490;9.222;2023-11-21T05:04:59;9.00;22.70
6486;DHT22;3276;48.490;9.222;2023-11-21T05:07:25;9.00;22.90
6486;DHT22;3276;48.490;9.222;2023-11-21T05:09:57;9.00;22.70
6486;DHT22;3276;48.490;9.222;2023-11-21T05:12:23;9.00;22.90
6486;DHT22;3276;48.490;9.222;2023-11-21T05:14:50;9.00;24.30
6486;DHT22;3276;48.490;9.222;2023-11-21T05:17:15;8.90;24.60
6486;DHT22;3276;48.490;9.222;2023-11-21T05:19:41;9.00;24.00
6486;DHT22;3276;48.490;9.222;2023-11-21T05:22:06;8.90;23.80
6486;DHT22;3276;48.490;9.222;2023-11-21T05:24:34;9.00;24.20
6486;DHT22;3276;48.490;9.222;2023-11-21T05:27:00;8.90;24.20
6486;DHT22;3276;48.490;9.222;2023-11-21T05:29:25;8.90;24.80
6486;DHT22;3276;48.490;9.222;2023-11-21T05:31:51;8.90;25.20
6486;DHT22;3276;48.490;9.222;2023-11-21T05:34:18;8.90;25.80
6486;DHT22;3276;48.490;9.222;2023-11-21T05:36:44;9.00;25.60
6486;DHT22;3276;48.490;9.222;2023-11-21T05:39:11;9.00;25.40
6486;DHT22;3276;48.490;9.222;2023-11-21T05:41:36;8.90;26.40
6486;DHT22;3276;48.490;9.222;2023-11-21T05:44:02;8.90;26.20
6486;DHT22;3276;48.490;9.222;2023-11-21T05:46:28;8.90;26.10
6486;DHT22;3276;48.490;9.222;2023-11-21T05:48:53;8.90;25.90
6486;DHT22;3276;48.490;9.222;2023-11-21T05:51:20;8.90;26.00
6486;DHT22;3276;48.490;9.222;2023-11-21T05:53:45;8.90;26.00
6486;DHT22;3276;48.490;9.222;2023-11-21T05:56:12;8.70;27.90
6486;DHT22;3276;48.490;9.222;2023-11-21T05:58:39;8.80;27.90
6486;DHT22;3276;48.490;9.222;2023-11-21T06:01:05;8.80;27.90
6486;DHT22;3276;48.490;9.222;2023-11-21T06:03:33;8.80;26.20
6486;DHT22;3276;48.490;9.222;2023-11-21T06:05:58;8.80;27.30
6486;DHT22;3276;48.490;9.222;2023-11-21T06:08:24;8.80;27.70
6486;DHT22;3276;48.490;9.222;2023-11-21T06:10:50;8.80;27.60
6486;DHT22;3276;48.490;9.222;2023-11-21T06:13:15;8.80;27.80
6486;DHT22;3276;48.490;9.222;2023-11-21T06:15:41;8.80;28.80
6486;DHT22;3276;48.490;9.222;2023-11-21T06:18:07;8.70;29.00
6486;DHT22;3276;48.490;9.222;2023-11-21T06:20:35;8.60;28.60
6486;DHT22;3276;48.490;9.222;2023-11-21T06:23:02;8.50;30.00
6486;DHT22;3276;48.490;9.222;2023-11-21T06:25:29;8.50;30.40
6486;DHT22;3276;48.490;9.222;2023-11-21T06:27:54;8.50;30.60
6486;DHT22;3276;48.490;9.222;2023-11-21T06:30:20;8.60;30.70
6486;DHT22;3276;48.490;9.222;2023-11-21T06:32:47;8.50;30.60
6486;DHT22;3276;48.490;9.222;2023-11-21T06:35:12;8.40;30.50
6486;DHT22;3276;48.490;9.222;2023-11-21T06:37:38;8.20;31.20
6486;DHT22;3276;48.490;9.222;2023-11-21T06:40:04;8.30;33.60
6486;DHT22;3276;48.490;9.222;2023-11-21T06:42:31;8.30;33.30
6486;DHT22;3276;48.490;9.222;2023-11-21T06:44:58;8.40;33.30
6486;DHT22;3276;48.490;9.222;2023-11-21T06:47:24;8.40;33.60
6486;DHT22;3276;48.490;9.222;2023-11-21T06:49:54;8.40;33.20
6486;DHT22;3276;48.490;9.222;2023-11-21T06:52:19;8.50;32.90
6486;DHT22;3276;48.490;9.222;2023-11-21T06:54:45;8.50;32.00
6486;DHT22;3276;48.490;9.222;2023-11-21T06:57:11;8.50;33.20
6486;DHT22;3276;48.490;9.222;2023-11-21T06:59:37;8.50;30.70
6486;DHT22;3276;48.490;9.222;2023-11-21T07:02:03;8.60;30.70
6486;DHT22;3276;48.490;9.222;2023-11-21T07:04:30;8.60;30.80
6486;DHT22;3276;48.490;9.222;2023-11-21T07:06:55;8.70;31.40
6486;DHT22;3276;48.490;9.222;2023-11-21T07:09:21;8.70;29.70
6486;DHT22;3276;48.490;9.222;2023-11-21T07:11:48;8.80;30.90
6486;DHT22;3276;48.490;9.222;2023-11-21T07:14:14;8.90;30.30
6486;DHT22;3276;48.490;9.222;2023-11-21T07:16:40;8.90;29.20
6486;DHT22;3276;48.490;9.222;2023-11-21T07:19:06;9.00;29.40
6486;DHT22;3276;48.490;9.222;2023-11-21T07:21:33;9.10;28.20
6486;DHT22;3276;48.490;9.222;2023-11-21T07:24:00;9.20;27.30
6486;DHT22;3276;48.490;9.222;2023-11-21T07:26:27;9.30;24.60
6486;DHT22;3276;48.490;9.222;2023-11-21T07:28:52;9.20;24.20
6486;DHT22;3276;48.490;9.222;2023-11-21T07:31:18;9.20;23.30
6486;DHT22;3276;48.490;9.222;2023-11-21T07:33:45;9.10;24.70
6486;DHT22;3276;48.490;9.222;2023-11-21T07:36:12;9.20;24.30
6486;DHT22;3276;48.490;9.222;2023-11-21T07:38:38;9.20;24.80
6486;DHT22;3276;48.490;9.222;2023-11-21T07:41:04;9.40;24.40
6486;DHT22;3276;48.490;9.222;2023-11-21T07:43:30;9.50;23.00
6486;DHT22;3276;48.490;9.222;2023-11-21T07:46:04;9.60;23.10
6486;DHT22;3276;48.490;9.222;2023-11-21T07:48:32;9.70;23.10
6486;DHT22;3276;48.490;9.222;2023-11-21T07:50:58;9.80;22.00
6486;DHT22;3276;48.490;9.222;2023-11-21T07:53:24;9.80;22.80
6486;DHT22;3276;48.490;9.222;2023-11-21T07:55:55;9.80;23.20
6486;DHT22;3276;48.490;9.222;2023-11-21T07:58:21;9.90;23.30
6486;DHT22;3276;48.490;9.222;2023-11-21T08:00:46;10.00;22.60
6486;DHT22;3276;48.490;9.222;2023-11-21T08:03:15;10.10;20.90
6486;DHT22;3276;48.490;9.222;2023-11-21T08:05:41;10.10;20.30
6486;DHT22;3276;48.490;9.222;2023-11-21T08:08:07;10.10;19.70
6486;DHT22;3276;48.490;9.222;2023-11-21T08:10:33;10.00;20.90
6486;DHT22;3276;48.490;9.222;2023-11-21T08:12:58;10.00;18.70
6486;DHT22;3276;48.490;9.222;2023-11-21T08:15:24;9.80;19.00
6486;DHT22;3276;48.490;9.222;2023-11-21T08:17:49;9.80;20.80
6486;DHT22;3276;48.490;9.222;2023-11-21T08:20:15;9.80;20.10
6486;DHT22;3276;48.490;9.222;2023-11-21T08:22:44;9.50;21.30
6486;DHT22;3276;48.490;9.222;2023-11-21T08:25:10;9.50;22.80
6486;DHT22;3276;48.490;9.222;2023-11-21T08:27:36;9.40;22.90
6486;DHT22;3276;48.490;9.222;2023-11-21T08:30:06;9.50;23.70
6486;DHT22;3276;48.490;9.222;2023-11-21T08:32:32;9.40;22.90
6486;DHT22;3276;48.490;9.222;2023-11-21T08:34:59;9.50;24.20
6486;DHT22;3276;48.490;9.222;2023-11-21T08:37:25;9.60;24.40
6486;DHT22;3276;48.490;9.222;2023-11-21T08:39:52;9.70;21.00
6486;DHT22;3276;48.490;9.222;2023-11-21T08:42:18;9.70;21.40
6486;DHT22;3276;48.490;9.222;2023-11-21T08:44:44;9.80;21.30
6486;DHT22;3276;48.490;9.222;2023-11-21T08:47:09;9.80;21.20
6486;DHT22;3276;48.490;9.222;2023-11-21T08:49:35;9.90;21.50
6486;DHT22;3276;48.490;9.222;2023-11-21T08:52:01;10.00;21.80
6486;DHT22;3276;48.490;9.222;2023-11-21T08:54:26;10.00;19.90
6486;DHT22;3276;48.490;9.222;2023-11-21T08:56:53;9.90;22.80
6486;DHT22;3276;48.490;9.222;2023-11-21T08:59:18;10.00;20.60
6486;DHT22;3276;48.490;9.222;2023-11-21T09:01:45;10.10;21.00
6486;DHT22;3276;48.490;9.222;2023-11-21T09:04:12;10.30;20.00
6486;DHT22;3276;48.490;9.222;2023-11-21T09:06:38;10.20;18.50
6486;DHT22;3276;48.490;9.222;2023-11-21T09:09:04;10.20;18.50
6486;DHT22;3276;48.490;9.222;2023-11-21T09:11:33;10.10;18.50
6486;DHT22;3276;48.490;9.222;2023-11-21T09:14:03;10.40;18.60
6486;DHT22;3276;48.490;9.222;2023-11-21T09:16:29;10.60;18.40
6486;DHT22;3276;48.490;9.222;2023-11-21T09:18:54;10.70;17.50
6486;DHT22;3276;48.490;9.222;2023-11-21T09:21:20;10.80;15.10
6486;DHT22;3276;48.490;9.222;2023-11-21T09:23:46;10.90;16.40
6486;DHT22;3276;48.490;9.222;2023-11-21T09:26:12;11.00;16.10
6486;DHT22;3276;48.490;9.222;2023-11-21T09:28:37;11.10;14.00
6486;DHT22;3276;48.490;9.222;2023-11-21T09:31:07;11.20;14.80
6486;DHT22;3276;48.490;9.222;2023-11-21T09:33:35;10.90;14.60
6486;DHT22;3276;48.490;9.222;2023-11-21T09:36:00;10.80;14.60
6486;DHT22;3276;48.490;9.222;2023-11-21T09:38:30;10.70;14.50
6486;DHT22;3276;48.490;9.222;2023-11-21T09:40:55;10.70;16.60
6486;DHT22;3276;48.490;9.222;2023-11-21T09:43:24;10.60;15.60
6486;DHT22;3276;48.490;9.222;2023-11-21T09:45:58;10.70;15.10
6486;DHT22;3276;48.490;9.222;2023-11-21T09:48:26;10.60;14.20
6486;DHT22;3276;48.490;9.222;2023-11-21T09:50:53;10.40;14.30
6486;DHT22;3276;48.490;9.222;2023-11-21T09:53:20;10.40;14.70
6486;DHT22;3276;48.490;9.222;2023-11-21T09:55:48;10.20;15.20
6486;DHT22;3276;48.490;9.222;2023-11-21T09:58:16;10.30;16.70
6486;DHT22;3276;48.490;9.222;2023-11-21T10:00:44;10.50;16.90
6486;DHT22;3276;48.490;9.222;2023-11-21T10:03:10;10.50;16.00
6486;DHT22;3276;48.490;9.222;2023-11-21T10:05:37;10.70;14.60
6486;DHT22;3276;48.490;9.222;2023-11-21T10:08:10;10.70;14.50
6486;DHT22;3276;48.490;9.222;2023-11-21T10:10:37;10.70;14.50
6486;DHT22;3276;48.490;9.222;2023-11-21T10:13:05;10.90;14.20
6486;DHT22;3276;48.490;9.222;2023-11-21T10:15:34;11.00;12.00
6486;DHT22;3276;48.490;9.222;2023-11-21T10:18:03;10.80;12.60
6486;DHT22;3276;48.490;9.222;2023-11-21T10:20:30;10.80;12.40
6486;DHT22;3276;48.490;9.222;2023-11-21T10:22:56;10.60;14.40
6486;DHT22;3276;48.490;9.222;2023-11-21T10:25:22;10.60;14.00
6486;DHT22;3276;48.490;9.222;2023-11-21T10:27:49;10.60;13.30
6486;DHT22;3276;48.490;9.222;2023-11-21T10:30:17;10.50;13.60
6486;DHT22;3276;48.490;9.222;2023-11-21T10:32:43;10.30;14.90
6486;DHT22;3276;48.490;9.222;2023-11-21T10:35:10;10.30;17.40
6486;DHT22;3276;48.490;9.222;2023-11-21T10:37:39;10.40;19.70
6486;DHT22;3276;48.490;9.222;2023-11-21T10:40:09;10.40;21.80
6486;DHT22;3276;48.490;9.222;2023-11-21T10:42:38;10.30;22.80
6486;DHT22;3276;48.490;9.222;2023-11-21T10:45:05;10.30;24.00
6486;DHT22;3276;48.490;9.222;2023-11-21T10:47:39;10.40;22.90
6486;DHT22;3276;48.490;9.222;2023-11-21T10:50:05;10.30;22.40
6486;DHT22;3276;48.490;9.222;2023-11-21T10:52:31;10.40;22.10
6486;DHT22;3276;48.490;9.222;2023-11-21T10:54:56;10.40;21.00
6486;DHT22;3276;48.490;9.222;2023-11-21T10:57:25;10.40;21.60
6486;DHT22;3276;48.490;9.222;2023-11-21T10:59:53;10.40;20.50
6486;DHT22;3276;48.490;9.222;2023-11-21T11:02:25;10.40;21.30
6486;DHT22;3276;48.490;9.222;2023-11-21T11:04:54;10.20;22.70
6486;DHT22;3276;48.490;9.222;2023-11-21T11:07:21;10.20;22.70
6486;DHT22;3276;48.490;9.222;2023-11-21T11:09:50;10.10;23.00
6486;DHT22;3276;48.490;9.222;2023-11-21T11:12:16;10.10;23.90
6486;DHT22;3276;48.490;9.222;2023-11-21T11:14:42;9.90;25.70
6486;DHT22;3276;48.490;9.222;2023-11-21T11:17:10;10.20;24.80
6486;DHT22;3276;48.490;9.222;2023-11-21T11:19:36;10.40;23.30
6486;DHT22;3276;48.490;9.222;2023-11-21T11:25:14;10.50;22.60
6486;DHT22;3276;48.490;9.222;2023-11-21T11:33:11;11.20;18.50
6486;DHT22;3276;48.490;9.222;2023-11-21T11:35:57;11.30;17.40
6486;DHT22;3276;48.490;9.222;2023-11-21T11:38:28;11.40;18.00
6486;DHT22;3276;48.490;9.222;2023-11-21T11:40:56;11.20;15.20
6486;DHT22;3276;48.490;9.222;2023-11-21T11:43:27;11.00;17.20
6486;DHT22;3276;48.490;9.222;2023-11-21T11:45:57;10.80;17.50
6486;DHT22;3276;48.490;9.222;2023-11-21T11:48:24;10.80;17.00
6486;DHT22;3276;48.490;9.222;2023-11-21T11:51:09;11.20;17.90
6486;DHT22;3276;48.490;9.222;2023-11-21T11:53:37;11.40;15.40
6486;DHT22;3276;48.490;9.222;2023-11-21T11:56:28;11.30;16.20
6486;DHT22;3276;48.490;9.222;2023-11-21T11:58:58;11.30;16.60
6486;DHT22;3276;48.490;9.222;2023-11-21T12:01:27;11.00;19.80
6486;DHT22;3276;48.490;9.222;2023-11-21T12:06:46;10.50;19.40
6486;DHT22;3276;48.490;9.222;2023-11-21T12:09:32;10.40;21.80
6486;DHT22;3276;48.490;9.222;2023-11-21T12:11:58;10.20;23.10
6486;DHT22;3276;48.490;9.222;2023-11-21T12:14:23;10.20;24.90
6486;DHT22;3276;48.490;9.222;2023-11-21T12:16:49;10.20;24.10
6486;DHT22;3276;48.490;9.222;2023-11-21T12:19:17;10.10;25.10
6486;DHT22;3276;48.490;9.222;2023-11-21T12:21:42;10.20;26.20
6486;DHT22;3276;48.490;9.222;2023-11-21T12:24:09;10.30;26.00
6486;DHT22;3276;48.490;9.222;2023-11-21T12:26:35;10.20;26.60
6486;DHT22;3276;48.490;9.222;2023-11-21T12:29:04;10.30;26.80
6486;DHT22;3276;48.490;9.222;2023-11-21T12:31:30;10.20;27.50
6486;DHT22;3276;48.490;9.222;2023-11-21T12:33:56;10.30;27.20
6486;DHT22;3276;48.490;9.222;2023-11-21T12:36:22;10.20;26.70
6486;DHT22;3276;48.490;9.222;2023-11-21T12:38:48;10.20;27.00
6486;DHT22;3276;48.490;9.222;2023-11-21T12:41:16;10.10;27.60
6486;DHT22;3276;48.490;9.222;2023-11-21T12:43:42;10.30;26.90
6486;DHT22;3276;48.490;9.222;2023-11-21T12:46:10;10.10;27.80
6486;DHT22;3276;48.490;9.222;2023-11-21T12:48:43;10.10;26.80
6486;DHT22;3276;48.490;9.222;2023-11-21T12:51:12;10.00;27.20
6486;DHT22;3276;48.490;9.222;2023-11-21T12:53:42;10.10;27.30
6486;DHT22;3276;48.490;9.222;2023-11-21T12:56:10;10.00;27.70
6486;DHT22;3276;48.490;9.222;2023-11-21T12:58:40;10.00;28.60
6486;DHT22;3276;48.490;9.222;2023-11-21T13:01:07;9.90;28.20
6486;DHT22;3276;48.490;9.222;2023-11-21T13:03:38;9.90;30.00
6486;DHT22;3276;48.490;9.222;2023-11-21T13:06:04;9.80;33.50
6486;DHT22;3276;48.490;9.222;2023-11-21T13:08:30;9.80;35.00
6486;DHT22;3276;48.490;9.222;2023-11-21T13:10:58;9.90;34.10
6486;DHT22;3276;48.490;9.222;2023-11-21T13:13:24;10.00;30.60
6486;DHT22;3276;48.490;9.222;2023-11-21T13:15:58;10.00;30.00
6486;DHT22;3276;48.490;9.222;2023-11-21T13:18:29;9.90;29.60
6486;DHT22;3276;48.490;9.222;2023-11-21T13:20:57;9.70;30.30
6486;DHT22;3276;48.490;9.222;2023-11-21T13:23:24;9.70;31.60
6486;DHT22;3276;48.490;9.222;2023-11-21T13:25:50;9.90;31.00
6486;DHT22;3276;48.490;9.222;2023-11-21T13:28:16;9.90;31.10
6486;DHT22;3276;48.490;9.222;2023-11-21T13:30:44;9.90;31.80
6486;DHT22;3276;48.490;9.222;2023-11-21T13:33:10;10.00;29.90
6486;DHT22;3276;48.490;9.222;2023-11-21T13:35:39;10.20;28.90
6486;DHT22;3276;48.490;9.222;2023-11-21T13:38:12;10.40;27.10
6486;DHT22;3276;48.490;9.222;2023-11-21T13:40:39;10.50;24.70
6486;DHT22;3276;48.490;9.222;2023-11-21T13:43:10;10.50;25.60
6486;DHT22;3276;48.490;9.222;2023-11-21T13:45:37;10.60;24.60
6486;DHT22;3276;48.490;9.222;2023-11-21T13:48:05;10.60;24.40
6486;DHT22;3276;48.490;9.222;2023-11-21T13:50:38;10.70;24.40
6486;DHT22;3276;48.490;9.222;2023-11-21T13:53:04;10.80;23.10
6486;DHT22;3276;48.490;9.222;2023-11-21T13:55:51;10.70;23.10
6486;DHT22;3276;48.490;9.222;2023-11-21T13:58:23;10.60;23.00
6486;DHT22;3276;48.490;9.222;2023-11-21T14:00:58;10.50;24.60
6486;DHT22;3276;48.490;9.222;2023-11-21T14:03:24;10.40;25.80
6486;DHT22;3276;48.490;9.222;2023-11-21T14:05:58;10.30;27.30
6486;DHT22;3276;48.490;9.222;2023-11-21T14:08:26;10.10;28.40
6486;DHT22;3276;48.490;9.222;2023-11-21T14:10:57;10.10;29.30
6486;DHT22;3276;48.490;9.222;2023-11-21T14:13:25;10.10;28.80
6486;DHT22;3276;48.490;9.222;2023-11-21T14:15:51;10.10;28.30
6486;DHT22;3276;48.490;9.222;2023-11-21T14:18:23;10.00;29.10
6486;DHT22;3276;48.490;9.222;2023-11-21T14:20:56;10.00;30.00
6486;DHT22;3276;48.490;9.222;2023-11-21T14:23:21;9.90;30.80
6486;DHT22;3276;48.490;9.222;2023-11-21T14:25:48;9.80;31.40
6486;DHT22;3276;48.490;9.222;2023-11-21T14:28:15;9.80;31.70
6486;DHT22;3276;48.490;9.222;2023-11-21T14:30:40;9.90;31.80
6486;DHT22;3276;48.490;9.222;2023-11-21T14:33:08;9.90;31.70
6486;DHT22;3276;48.490;9.222;2023-11-21T14:35:35;9.70;30.40
6486;DHT22;3276;48.490;9.222;2023-11-21T14:38:01;9.80;30.90
6486;DHT22;3276;48.490;9.222;2023-11-21T14:40:32;9.80;29.80
6486;DHT22;3276;48.490;9.222;2023-11-21T14:43:02;9.80;30.10
6486;DHT22;3276;48.490;9.222;2023-11-21T14:45:31;9.80;29.50
6486;DHT22;3276;48.490;9.222;2023-11-21T14:47:56;9.80;29.30
6486;DHT22;3276;48.490;9.222;2023-11-21T14:50:32;9.80;29.60
6486;DHT22;3276;48.490;9.222;2023-11-21T14:53:06;9.70;30.70
6486;DHT22;3276;48.490;9.222;2023-11-21T14:55:35;9.70;30.10
6486;DHT22;3276;48.490;9.222;2023-11-21T14:58:17;9.70;31.60
6486;DHT22;3276;48.490;9.222;2023-11-21T15:00:55;9.60;32.30
6486;DHT22;3276;48.490;9.222;2023-11-21T15:03:28;9.70;31.60
6486;DHT22;3276;48.490;9.222;2023-11-21T15:05:57;9.60;31.50
6486;DHT22;3276;48.490;9.222;2023-11-21T15:08:23;9.60;31.50
6486;DHT22;3276;48.490;9.222;2023-11-21T15:10:57;9.50;33.50
6486;DHT22;3276;48.490;9.222;2023-11-21T15:13:23;9.50;34.10
6486;DHT22;3276;48.490;9.222;2023-11-21T15:15:50;9.50;35.70
6486;DHT22;3276;48.490;9.222;2023-11-21T15:18:16;9.40;36.10
6486;DHT22;3276;48.490;9.222;2023-11-21T15:20:42;9.30;39.00
6486;DHT22;3276;48.490;9.222;2023-11-21T15:23:09;9.20;39.50
6486;DHT22;3276;48.490;9.222;2023-11-21T15:25:35;9.10;41.50
6486;DHT22;3276;48.490;9.222;2023-11-21T15:28:04;9.10;41.60
6486;DHT22;3276;48.490;9.222;2023-11-21T15:30:31;9.10;42.50
6486;DHT22;3276;48.490;9.222;2023-11-21T15:32:58;9.10;43.30
6486;DHT22;3276;48.490;9.222;2023-11-21T15:35:23;9.00;42.50
6486;DHT22;3276;48.490;9.222;2023-11-21T15:37:49;8.90;44.20
6486;DHT22;3276;48.490;9.222;2023-11-21T15:40:15;8.90;45.40
6486;DHT22;3276;48.490;9.222;2023-11-21T15:42:42;8.80;45.50
6486;DHT22;3276;48.490;9.222;2023-11-21T15:45:08;8.60;47.50
6486;DHT22;3276;48.490;9.222;2023-11-21T15:47:34;8.50;49.20
6486;DHT22;3276;48.490;9.222;2023-11-21T15:50:00;8.50;51.10
6486;DHT22;3276;48.490;9.222;2023-11-21T15:52:26;8.50;52.10
6486;DHT22;3276;48.490;9.222;2023-11-21T15:54:54;8.50;52.10
6486;DHT22;3276;48.490;9.222;2023-11-21T15:57:19;8.60;52.10
6486;DHT22;3276;48.490;9.222;2023-11-21T15:59:47;8.50;51.10
6486;DHT22;3276;48.490;9.222;2023-11-21T16:02:13;8.50;52.50
6486;DHT22;3276;48.490;9.222;2023-11-21T16:04:40;8.50;52.00
6486;DHT22;3276;48.490;9.222;2023-11-21T16:07:06;8.50;54.30
6486;DHT22;3276;48.490;9.222;2023-11-21T16:09:33;8.50;53.50
6486;DHT22;3276;48.490;9.222;2023-11-21T16:12:03;8.60;53.70
6486;DHT22;3276;48.490;9.222;2023-11-21T16:14:34;8.60;53.20
6486;DHT22;3276;48.490;9.222;2023-11-21T16:17:11;8.50;54.90
6486;DHT22;3276;48.490;9.222;2023-11-21T16:19:40;8.50;54.20
6486;DHT22;3276;48.490;9.222;2023-11-21T16:22:08;8.50;55.60